Time;durP1;ratioP1;P1;durP2;ratioP2;P2;SDS_P1;SDS_P2;PMS_P1;PMS_P2;Temp;Humidity;BMP_temperature;BMP_pressure;BME280_temperature;BME280_humidity;BME280_pressure;Samples;Min_cycle;Max_cycle;Signal;HPM_P1;HPM_P2
2022/07/27 00:00:09;;;;;;;4.15;1.92;;;14.70;99.90;;;;;;8288322;28;20024;-78
2022/07/27 00:04:10;;;;;;;3.58;2.50;;;14.70;99.90;;;;;;8280501;28;20024;-78
2022/07/27 00:08:10;;;;;;;3.50;2.00;;;14.90;99.90;;;;;;8291623;28;20034;-78
2022/07/27 00:12:11;;;;;;;3.00;2.20;;;15.10;99.90;;;;;;8291378;28;20030;-78
2022/07/27 00:16:12;;;;;;;2.92;2.00;;;14.90;99.90;;;;;;8292216;28;20406;-78
2022/07/27 00:20:12;;;;;;;3.53;2.30;;;14.70;99.90;;;;;;8292177;28;20052;-79
2022/07/27 00:24:13;;;;;;;2.55;2.00;;;14.40;99.90;;;;;;8293172;28;20022;-78
2022/07/27 00:28:13;;;;;;;5.22;2.20;;;14.20;99.90;;;;;;8292268;28;20021;-79
2022/07/27 00:32:14;;;;;;;3.63;2.08;;;14.20;99.90;;;;;;8290381;28;20022;-78
2022/07/27 00:36:15;;;;;;;3.90;2.13;;;14.30;99.90;;;;;;8290405;28;20508;-78
2022/07/27 00:40:15;;;;;;;3.05;2.08;;;14.10;99.90;;;;;;8290827;28;20026;-78
2022/07/27 00:44:29;;;;;;;5.00;2.47;;;13.80;99.90;;;;;;8291509;28;20022;-78
2022/07/27 00:48:29;;;;;;;3.58;2.45;;;13.70;99.90;;;;;;8291747;28;20096;-78
2022/07/27 00:52:31;;;;;;;3.47;2.35;;;13.80;99.90;;;;;;8292644;28;20030;-79
2022/07/27 00:56:31;;;;;;;3.97;2.22;;;13.70;99.90;;;;;;8290893;28;20026;-78
2022/07/27 01:00:32;;;;;;;2.70;2.20;;;13.90;99.90;;;;;;8290586;28;20262;-79
2022/07/27 01:04:33;;;;;;;4.93;2.33;;;14.30;99.90;;;;;;8280944;28;20014;-78
2022/07/27 01:08:34;;;;;;;5.53;2.65;;;14.70;99.90;;;;;;8293130;28;20049;-79
2022/07/27 01:12:34;;;;;;;3.13;2.45;;;15.00;99.90;;;;;;8292799;28;20025;-77
2022/07/27 01:16:35;;;;;;;4.18;2.22;;;15.10;99.90;;;;;;8293630;28;20049;-78
2022/07/27 01:20:36;;;;;;;3.15;2.13;;;15.00;99.90;;;;;;8291680;28;20037;-78
2022/07/27 01:24:37;;;;;;;2.85;2.20;;;14.50;99.90;;;;;;8297272;28;20022;-78
2022/07/27 01:28:42;;;;;;;10.18;2.42;;;14.10;99.90;;;;;;8297406;28;20022;-78
2022/07/27 01:32:43;;;;;;;4.47;2.53;;;13.80;99.90;;;;;;8296709;28;20025;-79
2022/07/27 01:36:44;;;;;;;6.18;3.10;;;13.40;99.90;;;;;;8296475;28;20059;-79
2022/07/27 01:40:45;;;;;;;4.57;2.75;;;13.20;99.90;;;;;;8296459;28;20029;-79
2022/07/27 01:44:45;;;;;;;4.88;2.60;;;13.20;99.90;;;;;;8289403;28;20058;-78
2022/07/27 01:48:46;;;;;;;4.50;2.40;;;13.50;99.90;;;;;;8297148;28;20401;-79
2022/07/27 01:52:47;;;;;;;3.58;2.63;;;13.60;99.90;;;;;;8296128;28;20040;-78
2022/07/27 01:56:48;;;;;;;5.50;2.85;;;13.50;99.90;;;;;;8289758;28;20494;-79
2022/07/27 02:00:49;;;;;;;6.32;2.70;;;13.80;99.90;;;;;;8294085;28;20032;-78
2022/07/27 02:04:49;;;;;;;6.18;3.08;;;13.80;99.90;;;;;;8295831;28;20482;-78
2022/07/27 02:08:50;;;;;;;6.10;2.55;;;14.20;99.90;;;;;;8296677;28;20033;-79
2022/07/27 02:12:51;;;;;;;4.43;2.47;;;14.40;99.90;;;;;;8296210;28;20509;-78
2022/07/27 02:16:51;;;;;;;3.78;2.30;;;14.30;99.90;;;;;;8295445;28;20025;-78
2022/07/27 02:20:52;;;;;;;3.90;2.35;;;14.30;99.90;;;;;;8295208;28;20037;-78
2022/07/27 02:24:53;;;;;;;4.22;2.10;;;14.30;99.90;;;;;;8295431;28;20410;-78
2022/07/27 02:28:53;;;;;;;4.88;2.65;;;14.20;99.90;;;;;;8295106;28;20036;-79
2022/07/27 02:32:54;;;;;;;3.25;2.60;;;14.30;99.90;;;;;;8294637;28;20164;-79
2022/07/27 02:36:55;;;;;;;5.40;3.33;;;14.20;99.90;;;;;;8295241;28;20046;-78
2022/07/27 02:40:56;;;;;;;4.32;2.42;;;14.10;99.90;;;;;;8295654;28;20022;-78
2022/07/27 02:44:56;;;;;;;4.32;2.22;;;14.40;99.90;;;;;;8291960;28;20057;-78
2022/07/27 02:48:57;;;;;;;3.83;2.20;;;14.20;99.90;;;;;;8294094;28;20037;-78
2022/07/27 02:52:57;;;;;;;5.38;2.30;;;14.00;99.90;;;;;;8294355;28;20363;-78
2022/07/27 02:57:03;;;;;;;4.78;2.50;;;13.90;99.90;;;;;;8291678;28;20030;-78
2022/07/27 03:01:04;;;;;;;3.13;2.10;;;13.80;99.90;;;;;;8295116;28;20017;-77
2022/07/27 03:05:08;;;;;;;4.20;2.38;;;13.90;99.90;;;;;;8294090;28;20050;-78
2022/07/27 03:09:08;;;;;;;4.85;2.45;;;13.90;99.90;;;;;;8295087;28;20489;-78
2022/07/27 03:13:09;;;;;;;5.88;2.67;;;14.20;99.90;;;;;;8295292;28;20028;-78
2022/07/27 03:17:10;;;;;;;2.83;2.00;;;14.20;99.90;;;;;;8295100;28;20029;-78
2022/07/27 03:21:10;;;;;;;6.15;3.35;;;14.20;99.90;;;;;;8293351;28;20040;-79
2022/07/27 03:25:11;;;;;;;4.25;2.28;;;14.30;99.90;;;;;;8293897;28;20406;-78
2022/07/27 03:29:12;;;;;;;2.75;2.47;;;14.30;99.90;;;;;;8294498;28;20029;-79
2022/07/27 03:33:12;;;;;;;5.05;2.60;;;14.10;99.90;;;;;;8291780;28;20022;-78
2022/07/27 03:37:14;;;;;;;4.22;2.10;;;14.10;99.90;;;;;;8293470;28;20407;-78
2022/07/27 03:41:14;;;;;;;4.82;2.42;;;14.20;99.90;;;;;;8291752;28;20026;-79
2022/07/27 03:45:15;;;;;;;3.63;2.25;;;14.10;99.90;;;;;;8289179;28;20579;-79
2022/07/27 03:49:16;;;;;;;2.70;2.10;;;14.10;99.90;;;;;;8289149;28;20120;-79
2022/07/27 03:53:16;;;;;;;2.75;2.22;;;14.00;99.90;;;;;;8292120;28;20033;-78
2022/07/27 03:57:17;;;;;;;3.05;2.47;;;14.10;99.90;;;;;;8290695;28;20018;-80
2022/07/27 04:01:17;;;;;;;2.75;2.08;;;14.00;99.90;;;;;;8290695;28;20176;-79
2022/07/27 04:05:19;;;;;;;2.55;2.35;;;13.90;99.90;;;;;;8291665;28;20037;-79
2022/07/27 04:09:20;;;;;;;4.70;2.72;;;14.00;99.90;;;;;;8292915;28;20018;-79
2022/07/27 04:13:20;;;;;;;4.35;2.63;;;14.10;99.90;;;;;;8293099;28;20022;-80
2022/07/27 04:17:21;;;;;;;3.70;2.80;;;14.30;99.90;;;;;;8283953;28;20435;-80
2022/07/27 04:21:21;;;;;;;6.30;2.80;;;14.30;99.90;;;;;;8290641;28;20139;-80
2022/07/27 04:25:22;;;;;;;6.30;2.70;;;14.30;99.90;;;;;;8290249;28;20482;-80
2022/07/27 04:29:22;;;;;;;3.90;2.38;;;14.50;99.90;;;;;;8288008;28;20041;-79
2022/07/27 04:33:23;;;;;;;3.55;2.00;;;15.00;99.90;;;;;;8290599;28;20022;-80
2022/07/27 04:37:23;;;;;;;2.65;2.30;;;15.10;99.90;;;;;;8290486;28;20045;-79
2022/07/27 04:41:24;;;;;;;3.60;2.20;;;15.00;99.90;;;;;;8289360;28;20084;-79
2022/07/27 04:45:24;;;;;;;7.32;2.90;;;15.20;99.90;;;;;;8287587;28;20726;-79
2022/07/27 04:49:25;;;;;;;3.72;2.60;;;15.30;99.90;;;;;;8285440;28;20026;-79
2022/07/27 04:53:26;;;;;;;4.53;2.38;;;15.50;99.90;;;;;;8287992;28;20028;-79
2022/07/27 04:57:26;;;;;;;7.55;3.05;;;15.50;99.90;;;;;;8294111;28;20477;-79
2022/07/27 05:01:27;;;;;;;8.15;3.20;;;15.60;99.90;;;;;;8294778;28;20504;-80
2022/07/27 05:05:27;;;;;;;7.03;2.60;;;15.70;99.90;;;;;;8296480;28;20045;-79
2022/07/27 05:09:28;;;;;;;3.97;2.45;;;15.90;99.90;;;;;;8296005;28;20116;-80
2022/07/27 05:13:28;;;;;;;4.90;2.45;;;16.40;99.90;;;;;;8296634;28;20018;-79
2022/07/27 05:17:29;;;;;;;3.08;2.40;;;16.20;99.90;;;;;;8296382;28;20402;-80
2022/07/27 05:21:29;;;;;;;5.53;2.33;;;16.30;99.90;;;;;;8295872;28;20026;-80
2022/07/27 05:25:30;;;;;;;5.07;2.03;;;16.40;99.90;;;;;;8296301;28;20449;-80
2022/07/27 05:29:30;;;;;;;4.05;2.50;;;16.60;99.90;;;;;;8295802;28;20014;-79
2022/07/27 05:33:31;;;;;;;2.63;2.05;;;16.50;99.90;;;;;;8296057;28;20390;-80
2022/07/27 05:37:32;;;;;;;3.65;2.08;;;16.30;99.90;;;;;;8295471;28;20080;-80
2022/07/27 05:41:32;;;;;;;4.55;2.20;;;16.20;99.90;;;;;;8296286;28;20038;-80
2022/07/27 05:45:33;;;;;;;6.32;2.40;;;16.50;99.90;;;;;;8296319;28;20100;-79
2022/07/27 05:49:34;;;;;;;3.58;2.40;;;16.70;99.90;;;;;;8294639;28;20017;-79
2022/07/27 05:53:34;;;;;;;4.03;2.50;;;17.10;99.90;;;;;;8293548;28;20025;-80
2022/07/27 05:57:36;;;;;;;4.43;2.50;;;17.20;99.90;;;;;;8294504;28;20014;-80
2022/07/27 06:01:37;;;;;;;3.70;2.20;;;18.90;99.90;;;;;;8295280;28;20029;-81
2022/07/27 06:05:37;;;;;;;3.55;2.20;;;20.80;99.90;;;;;;8294361;28;20391;-80
2022/07/27 06:09:38;;;;;;;2.53;1.65;;;22.00;99.90;;;;;;8294303;28;20101;-80
2022/07/27 06:13:39;;;;;;;2.55;1.80;;;23.30;99.90;;;;;;8294486;28;20029;-81
2022/07/27 06:17:39;;;;;;;3.15;1.90;;;24.20;99.90;;;;;;8294338;28;20121;-81
2022/07/27 06:21:40;;;;;;;5.57;1.77;;;25.10;99.90;;;;;;8293868;28;20018;-80
2022/07/27 06:25:40;;;;;;;4.50;2.08;;;25.00;99.90;;;;;;8294284;28;20385;-81
2022/07/27 06:29:41;;;;;;;4.82;1.85;;;24.20;99.90;;;;;;8294119;28;20505;-80
2022/07/27 06:33:42;;;;;;;6.30;2.33;;;24.10;99.90;;;;;;8294203;28;20040;-80
2022/07/27 06:37:43;;;;;;;3.65;2.15;;;23.70;99.90;;;;;;8294189;28;20508;-81
2022/07/27 06:41:43;;;;;;;3.05;1.75;;;23.80;99.90;;;;;;8294473;28;20036;-80
2022/07/27 06:45:44;;;;;;;4.13;1.88;;;23.90;99.90;;;;;;8292969;28;20041;-81
2022/07/27 06:49:45;;;;;;;7.97;1.92;;;23.40;99.90;;;;;;8292042;28;20029;-81
2022/07/27 06:53:45;;;;;;;2.28;1.60;;;23.60;99.90;;;;;;8291704;28;20025;-81
2022/07/27 06:57:46;;;;;;;3.30;1.60;;;24.00;99.90;;;;;;8290399;28;20028;-80
2022/07/27 07:01:46;;;;;;;6.13;1.67;;;24.20;99.90;;;;;;8291654;28;20045;-81
2022/07/27 07:05:47;;;;;;;6.10;1.73;;;24.90;99.90;;;;;;8292608;28;20112;-80
2022/07/27 07:09:47;;;;;;;3.25;1.67;;;25.00;99.90;;;;;;8292854;28;20038;-81
2022/07/27 07:13:48;;;;;;;4.03;1.80;;;24.90;99.90;;;;;;8290430;28;20057;-80
2022/07/27 07:17:49;;;;;;;5.47;1.80;;;25.00;99.90;;;;;;8291954;28;20216;-81
2022/07/27 07:21:50;;;;;;;9.93;1.90;;;25.20;99.90;;;;;;8289162;28;20030;-80
2022/07/27 07:25:51;;;;;;;2.00;1.77;;;25.20;99.90;;;;;;8292917;28;20026;-81
2022/07/27 07:29:51;;;;;;;2.60;1.58;;;25.30;99.90;;;;;;8291923;28;20482;-80
2022/07/27 07:33:52;;;;;;;2.38;1.88;;;25.30;99.90;;;;;;8291537;28;20025;-79
2022/07/27 07:37:52;;;;;;;4.88;1.65;;;25.40;99.90;;;;;;8293082;28;20029;-80
2022/07/27 07:41:53;;;;;;;5.43;1.70;;;25.00;99.90;;;;;;8291513;28;20105;-80
2022/07/27 07:45:54;;;;;;;2.60;1.70;;;24.10;99.90;;;;;;8292308;28;20108;-80
2022/07/27 07:49:54;;;;;;;3.10;1.60;;;23.40;99.90;;;;;;8290132;28;20061;-80
2022/07/27 07:53:55;;;;;;;2.97;1.88;;;23.10;99.90;;;;;;8287877;28;20026;-80
2022/07/27 07:57:56;;;;;;;3.15;1.58;;;23.70;99.90;;;;;;8291593;28;20030;-80
2022/07/27 08:01:56;;;;;;;2.40;1.63;;;24.10;99.90;;;;;;8289452;28;20030;-80
2022/07/27 08:05:57;;;;;;;4.00;1.60;;;24.30;99.90;;;;;;8287948;28;20395;-80
2022/07/27 08:09:57;;;;;;;2.65;1.70;;;24.50;99.90;;;;;;8289596;28;20030;-80
2022/07/27 08:13:58;;;;;;;5.38;1.80;;;24.80;99.90;;;;;;8286619;28;20426;-80
2022/07/27 08:17:58;;;;;;;4.93;1.73;;;25.60;99.90;;;;;;8291213;28;20024;-80
2022/07/27 08:21:59;;;;;;;7.25;1.73;;;25.60;99.90;;;;;;8289029;28;20048;-81
2022/07/27 08:25:59;;;;;;;4.40;1.90;;;25.70;99.90;;;;;;8291001;28;20394;-80
2022/07/27 08:30:00;;;;;;;2.17;1.52;;;26.40;99.70;;;;;;8289291;28;20280;-80
2022/07/27 08:34:01;;;;;;;4.90;2.05;;;26.60;95.20;;;;;;8287633;28;20108;-80
2022/07/27 08:38:04;;;;;;;2.63;1.83;;;26.00;99.30;;;;;;8296007;28;20026;-80
2022/07/27 08:42:09;;;;;;;3.83;1.73;;;26.10;97.80;;;;;;8295645;28;20018;-80
2022/07/27 08:46:10;;;;;;;2.55;1.50;;;26.00;96.00;;;;;;8295073;28;20026;-81
2022/07/27 08:50:22;;;;;;;3.70;1.60;;;26.00;96.40;;;;;;8295265;28;20026;-81
2022/07/27 08:54:26;;;;;;;3.53;1.50;;;26.40;94.90;;;;;;8288656;28;20176;-80
2022/07/27 08:58:27;;;;;;;3.08;1.60;;;26.20;95.70;;;;;;8295601;28;20570;-80
2022/07/27 09:02:27;;;;;;;4.45;1.40;;;25.70;95.10;;;;;;8293599;28;20017;-80
2022/07/27 09:06:41;;;;;;;3.90;1.60;;;26.00;94.60;;;;;;8293116;28;20034;-80
2022/07/27 09:10:42;;;;;;;3.75;1.73;;;25.90;92.90;;;;;;8291769;28;20022;-80
2022/07/27 09:14:43;;;;;;;5.82;1.70;;;25.70;96.40;;;;;;8295918;28;20029;-81
2022/07/27 09:18:44;;;;;;;3.40;1.35;;;26.60;94.60;;;;;;8292863;28;20406;-80
2022/07/27 09:22:51;;;;;;;4.20;1.70;;;27.70;90.60;;;;;;8300517;28;20064;-81
2022/07/27 09:27:01;;;;;;;3.53;1.65;;;28.40;88.80;;;;;;8293442;28;20026;-80
2022/07/27 09:31:07;;;;;;;3.28;1.75;;;28.00;87.50;;;;;;8294899;28;20087;-80
2022/07/27 09:35:15;;;;;;;5.28;1.30;;;28.40;91.20;;;;;;8295391;28;20464;-78
2022/07/27 09:39:18;;;;;;;1.83;1.20;;;27.90;84.70;;;;;;8292589;28;20057;-79
2022/07/27 09:43:19;;;;;;;1.88;1.30;;;27.10;85.30;;;;;;8295060;28;20030;-79
2022/07/27 09:47:21;;;;;;;1.88;1.10;;;27.40;82.80;;;;;;8295013;28;20040;-78
2022/07/27 09:51:24;;;;;;;5.32;1.23;;;28.20;80.00;;;;;;8296020;28;20508;-78
2022/07/27 09:55:24;;;;;;;3.88;1.10;;;28.60;80.40;;;;;;8295104;28;20097;-79
2022/07/27 09:59:25;;;;;;;2.72;1.30;;;29.20;72.40;;;;;;8294603;28;20034;-79
2022/07/27 10:03:25;;;;;;;2.42;1.10;;;28.90;72.90;;;;;;8286668;28;20041;-78
2022/07/27 10:07:26;;;;;;;3.15;1.40;;;27.60;78.80;;;;;;8278065;28;20037;-78
2022/07/27 10:11:27;;;;;;;4.30;1.30;;;26.70;77.10;;;;;;8275182;28;20034;-78
2022/07/27 10:15:28;;;;;;;2.03;1.25;;;27.00;77.70;;;;;;8303142;28;20036;-80
2022/07/27 10:19:44;;;;;;;2.17;1.40;;;28.10;75.10;;;;;;8291812;28;20030;-81
2022/07/27 10:24:05;;;;;;;3.65;1.40;;;28.00;76.30;;;;;;8293152;28;20506;-81
2022/07/27 10:28:16;;;;;;;3.00;1.45;;;27.40;80.00;;;;;;8291201;28;20036;-80
2022/07/27 10:32:31;;;;;;;2.58;1.38;;;26.30;81.40;;;;;;8293436;28;20030;-80
2022/07/27 10:36:31;;;;;;;2.65;1.48;;;27.10;88.50;;;;;;8294211;28;20501;-81
2022/07/27 10:40:35;;;;;;;2.30;1.35;;;27.80;81.70;;;;;;8286698;28;20026;-80
2022/07/27 10:44:35;;;;;;;6.68;1.38;;;27.40;79.30;;;;;;8285530;28;20030;-80
2022/07/27 10:48:41;;;;;;;2.00;1.33;;;27.40;73.30;;;;;;8291910;28;20084;-80
2022/07/27 10:52:52;;;;;;;1.15;1.02;;;27.80;76.80;;;;;;8287421;28;20383;-80
2022/07/27 10:56:54;;;;;;;2.03;1.27;;;27.40;76.40;;;;;;8305588;28;20029;-80
2022/07/27 11:00:55;;;;;;;1.23;1.13;;;27.40;77.10;;;;;;8287684;28;20038;-81
2022/07/27 11:04:55;;;;;;;4.22;1.10;;;27.90;72.50;;;;;;8289482;28;20049;-81
2022/07/27 11:08:58;;;;;;;2.92;1.58;;;27.70;72.20;;;;;;8291559;28;20029;-80
2022/07/27 11:12:59;;;;;;;4.53;1.30;;;27.60;75.40;;;;;;8284099;28;20022;-81
2022/07/27 11:17:04;;;;;;;2.58;1.40;;;28.00;74.90;;;;;;8289823;28;20034;-80
2022/07/27 11:21:19;;;;;;;3.17;1.50;;;26.80;77.80;;;;;;8291643;28;20061;-80
2022/07/27 11:25:20;;;;;;;2.78;1.50;;;25.90;82.20;;;;;;8293348;28;20033;-80
2022/07/27 11:29:23;;;;;;;4.60;1.50;;;25.40;84.60;;;;;;8290083;28;20478;-80
2022/07/27 11:33:23;;;;;;;2.42;1.38;;;25.40;84.80;;;;;;8289272;28;20034;-79
2022/07/27 11:37:24;;;;;;;3.33;1.55;;;25.40;79.30;;;;;;8291023;28;20038;-80
2022/07/27 11:41:30;;;;;;;3.45;1.40;;;25.70;82.10;;;;;;8290156;28;20492;-81
2022/07/27 11:45:31;;;;;;;4.07;1.60;;;26.40;82.00;;;;;;8290691;28;20042;-81
2022/07/27 11:49:32;;;;;;;2.50;1.65;;;26.40;79.00;;;;;;8290014;28;20053;-80
2022/07/27 11:53:34;;;;;;;4.40;1.40;;;26.60;78.90;;;;;;8289012;28;20029;-80
2022/07/27 11:57:34;;;;;;;3.25;1.55;;;26.70;77.80;;;;;;8291425;28;20053;-80
2022/07/27 12:01:49;;;;;;;3.38;1.60;;;27.20;81.10;;;;;;8290723;28;20487;-80
2022/07/27 12:05:54;;;;;;;1.95;1.45;;;27.90;76.40;;;;;;8290683;28;20046;-80
2022/07/27 12:10:00;;;;;;;3.00;1.33;;;29.10;75.40;;;;;;8290141;28;20034;-80
2022/07/27 12:14:11;;;;;;;2.20;1.55;;;31.70;64.90;;;;;;8291948;28;20030;-80
2022/07/27 12:18:12;;;;;;;;;;;33.10;62.10;;;;;;8286134;28;20053;-80
2022/07/27 12:22:12;;;;;;;2.05;1.30;;;32.70;57.00;;;;;;8289902;28;20052;-79
2022/07/27 12:26:18;;;;;;;3.45;1.48;;;34.20;55.30;;;;;;8289639;28;20609;-79
2022/07/27 12:30:31;;;;;;;2.63;1.60;;;32.00;60.70;;;;;;8290123;28;20072;-80
2022/07/27 12:34:35;;;;;;;2.25;1.30;;;32.60;57.10;;;;;;8289979;28;20018;-79
2022/07/27 12:38:47;;;;;;;1.58;1.30;;;30.20;61.10;;;;;;8292424;28;20095;-79
2022/07/27 12:42:56;;;;;;;5.40;1.42;;;29.80;65.10;;;;;;8291657;28;20037;-80
2022/07/27 12:47:00;;;;;;;1.90;1.42;;;29.40;62.40;;;;;;8290405;28;20048;-80
2022/07/27 12:51:04;;;;;;;3.40;1.75;;;30.10;65.80;;;;;;8291166;28;20057;-80
2022/07/27 12:55:05;;;;;;;2.55;1.80;;;30.50;60.80;;;;;;8289741;28;20426;-80
2022/07/27 12:59:05;;;;;;;2.70;1.70;;;30.80;60.50;;;;;;8287317;28;20081;-79
2022/07/27 13:03:06;;;;;;;2.47;1.80;;;29.40;65.30;;;;;;8291359;28;20490;-80
2022/07/27 13:07:07;;;;;;;2.13;1.50;;;28.10;68.50;;;;;;8289923;28;20041;-79
2022/07/27 13:11:08;;;;;;;2.75;1.67;;;30.20;64.50;;;;;;8289909;28;20041;-79
2022/07/27 13:15:08;;;;;;;3.50;1.73;;;29.10;64.00;;;;;;8291340;28;20084;-79
2022/07/27 13:19:10;;;;;;;2.28;1.90;;;29.00;65.00;;;;;;8294621;28;20112;-80
2022/07/27 13:23:10;;;;;;;2.72;1.50;;;31.50;58.40;;;;;;8296020;28;20238;-80
2022/07/27 13:27:11;;;;;;;2.90;1.60;;;30.80;62.40;;;;;;8295813;28;20402;-80
2022/07/27 13:31:12;;;;;;;3.97;1.77;;;28.30;66.00;;;;;;8295688;28;20030;-79
2022/07/27 13:35:13;;;;;;;2.55;1.70;;;26.80;69.30;;;;;;8296828;28;20025;-80
2022/07/27 13:39:14;;;;;;;1.95;1.67;;;28.30;69.50;;;;;;8296654;28;20022;-79
2022/07/27 13:43:14;;;;;;;5.45;1.90;;;31.20;59.70;;;;;;8296541;28;20030;-79
2022/07/27 13:47:15;;;;;;;6.05;1.90;;;32.10;59.70;;;;;;8295162;28;20061;-80
2022/07/27 13:51:16;;;;;;;6.22;2.58;;;31.60;58.60;;;;;;8295605;28;20018;-80
2022/07/27 13:55:17;;;;;;;4.13;1.77;;;33.90;55.40;;;;;;8290467;28;20520;-79
2022/07/27 13:59:17;;;;;;;3.58;1.63;;;32.10;56.40;;;;;;8291204;28;20088;-80
2022/07/27 14:03:18;;;;;;;5.47;2.10;;;31.20;57.00;;;;;;8293676;28;20022;-80
2022/07/27 14:07:18;;;;;;;3.30;1.52;;;32.10;55.60;;;;;;8294543;28;20445;-79
2022/07/27 14:11:19;;;;;;;4.57;1.70;;;32.30;55.10;;;;;;8294730;28;20041;-79
2022/07/27 14:15:20;;;;;;;4.53;2.10;;;31.90;55.10;;;;;;8291484;28;20044;-80
2022/07/27 14:19:20;;;;;;;2.25;1.45;;;31.70;57.80;;;;;;8295559;28;20021;-80
2022/07/27 14:23:22;;;;;;;1.95;1.50;;;32.50;56.30;;;;;;8293788;28;20021;-80
2022/07/27 14:27:22;;;;;;;5.93;1.70;;;33.30;52.20;;;;;;8296372;28;20076;-80
2022/07/27 14:31:23;;;;;;;3.38;1.85;;;31.40;55.80;;;;;;8291115;28;20029;-80
2022/07/27 14:35:24;;;;;;;6.07;1.90;;;30.00;60.50;;;;;;8293548;28;20540;-80
2022/07/27 14:39:24;;;;;;;2.20;1.85;;;28.60;62.00;;;;;;8293959;28;20022;-79
2022/07/27 14:43:26;;;;;;;4.30;1.70;;;29.90;59.70;;;;;;8293363;28;20042;-80
2022/07/27 14:47:27;;;;;;;2.92;1.70;;;29.70;58.00;;;;;;8292721;28;20581;-79
2022/07/27 14:51:27;;;;;;;5.40;1.80;;;28.30;60.20;;;;;;8292664;28;20022;-79
2022/07/27 14:55:28;;;;;;;2.35;1.90;;;26.80;66.90;;;;;;8292821;28;20031;-80
2022/07/27 14:59:29;;;;;;;2.72;1.90;;;25.80;73.10;;;;;;8293886;28;20112;-79
2022/07/27 15:03:29;;;;;;;3.03;1.80;;;25.40;70.20;;;;;;8291890;28;20076;-79
2022/07/27 15:07:30;;;;;;;5.93;2.10;;;25.00;73.60;;;;;;8290441;28;20038;-78
2022/07/27 15:11:30;;;;;;;4.07;2.28;;;25.00;72.90;;;;;;8292657;28;20117;-79
2022/07/27 15:15:31;;;;;;;2.25;1.80;;;25.30;74.50;;;;;;8293936;28;20029;-79
2022/07/27 15:19:32;;;;;;;2.40;1.60;;;26.90;69.80;;;;;;8293121;28;20504;-80
2022/07/27 15:23:32;;;;;;;3.40;1.90;;;28.20;67.50;;;;;;8292374;28;20022;-80
2022/07/27 15:27:33;;;;;;;2.33;1.60;;;26.80;68.50;;;;;;8292579;28;20026;-79
2022/07/27 15:31:33;;;;;;;3.28;1.70;;;28.10;66.60;;;;;;8292260;28;20275;-79
2022/07/27 15:35:34;;;;;;;3.58;2.05;;;29.20;60.40;;;;;;8293337;28;20169;-80
2022/07/27 15:39:36;;;;;;;3.03;2.00;;;27.40;65.70;;;;;;8291761;28;20026;-79
2022/07/27 15:43:38;;;;;;;3.40;1.90;;;26.10;73.30;;;;;;8292608;28;20026;-79
2022/07/27 15:47:38;;;;;;;3.83;1.85;;;26.40;71.00;;;;;;8291062;28;20263;-79
2022/07/27 15:51:39;;;;;;;4.53;1.95;;;26.00;72.10;;;;;;8290412;28;20060;-80
2022/07/27 15:55:41;;;;;;;2.08;1.80;;;25.60;70.90;;;;;;8287480;28;20037;-80
2022/07/27 15:59:42;;;;;;;4.15;2.08;;;25.90;70.30;;;;;;8289852;28;20030;-80
2022/07/27 16:03:42;;;;;;;5.30;1.90;;;26.00;71.20;;;;;;8290665;28;20309;-80
2022/07/27 16:07:43;;;;;;;5.13;1.88;;;26.20;73.60;;;;;;8291598;28;20037;-79
2022/07/27 16:11:43;;;;;;;5.90;2.28;;;26.60;69.80;;;;;;8291869;28;20065;-77
2022/07/27 16:20:04;;;;;;;4.53;2.08;;;26.10;70.40;;;;;;8288494;28;20568;-78
2022/07/27 16:24:04;;;;;;;4.28;2.20;;;25.60;73.60;;;;;;8288951;28;20116;-77
2022/07/27 16:28:06;;;;;;;4.47;2.00;;;25.00;73.00;;;;;;8288177;28;20301;-79
2022/07/27 16:32:07;;;;;;;7.25;2.10;;;24.60;75.10;;;;;;8291733;28;20048;-79
2022/07/27 16:36:07;;;;;;;3.90;2.08;;;24.50;76.10;;;;;;8293781;28;20022;-78
2022/07/27 16:40:08;;;;;;;3.38;2.38;;;24.50;74.20;;;;;;8292521;28;20532;-78
2022/07/27 16:44:09;;;;;;;2.65;2.25;;;25.00;74.70;;;;;;8289751;28;20056;-78
2022/07/27 16:48:11;;;;;;;6.57;2.20;;;25.50;75.00;;;;;;8292259;28;20069;-78
2022/07/27 16:52:11;;;;;;;2.42;2.00;;;25.60;72.80;;;;;;8285318;28;20029;-78
2022/07/27 16:56:13;;;;;;;4.53;2.20;;;25.50;71.80;;;;;;8295088;28;20478;-77
2022/07/27 17:00:14;;;;;;;4.22;2.28;;;25.00;72.50;;;;;;8288177;28;20658;-78
2022/07/27 17:04:14;;;;;;;4.25;2.20;;;24.30;75.50;;;;;;8282403;28;20528;-78
2022/07/27 17:08:15;;;;;;;4.47;1.90;;;24.20;78.40;;;;;;8284407;28;20061;-78
2022/07/27 17:12:16;;;;;;;3.42;2.10;;;23.80;77.50;;;;;;8283067;28;20091;-78
2022/07/27 17:16:16;;;;;;;5.38;2.03;;;23.60;78.60;;;;;;8293764;28;20080;-78
2022/07/27 17:20:17;;;;;;;2.85;2.58;;;23.50;80.40;;;;;;8284493;28;20098;-78
2022/07/27 17:24:17;;;;;;;3.05;2.00;;;23.40;81.40;;;;;;8295396;28;20026;-79
2022/07/27 17:28:18;;;;;;;3.42;2.17;;;23.30;82.50;;;;;;8285518;28;20053;-79
2022/07/27 17:32:19;;;;;;;3.33;1.98;;;23.10;83.30;;;;;;8286661;28;20025;-79
2022/07/27 17:36:20;;;;;;;5.90;2.00;;;22.90;84.50;;;;;;8296035;28;20025;-80
2022/07/27 17:40:21;;;;;;;2.42;2.00;;;22.80;83.70;;;;;;8299018;28;20029;-80
2022/07/27 17:44:21;;;;;;;3.42;2.35;;;22.70;87.00;;;;;;8290322;28;20029;-80
2022/07/27 17:48:22;;;;;;;9.43;2.30;;;22.60;87.60;;;;;;8294541;28;20030;-80
2022/07/27 17:52:22;;;;;;;4.78;2.28;;;22.40;87.80;;;;;;8297883;28;20041;-80
2022/07/27 17:56:23;;;;;;;5.07;2.60;;;22.20;88.30;;;;;;8295289;28;20029;-79
2022/07/27 18:00:23;;;;;;;3.85;2.22;;;21.90;89.60;;;;;;8291112;28;20029;-78
2022/07/27 18:04:25;;;;;;;3.17;2.00;;;21.70;89.00;;;;;;8296103;28;20032;-80
2022/07/27 18:08:26;;;;;;;4.03;2.10;;;21.50;89.90;;;;;;8288447;28;20426;-80
2022/07/27 18:12:26;;;;;;;3.90;2.47;;;21.40;90.90;;;;;;8286968;28;20105;-79
2022/07/27 18:16:27;;;;;;;4.20;2.30;;;21.30;91.50;;;;;;8291028;28;20028;-80
2022/07/27 18:20:28;;;;;;;5.60;2.30;;;21.00;92.60;;;;;;8287480;28;20495;-80
2022/07/27 18:24:34;;;;;;;2.63;2.10;;;20.90;94.00;;;;;;8285784;28;20033;-78
2022/07/27 18:28:35;;;;;;;5.97;2.42;;;20.70;95.60;;;;;;8294305;28;20025;-80
2022/07/27 18:32:35;;;;;;;4.85;2.20;;;20.50;96.10;;;;;;8295999;28;20022;-80
2022/07/27 18:36:37;;;;;;;14.35;3.10;;;20.20;96.70;;;;;;8286894;28;20033;-80
2022/07/27 18:40:42;;;;;;;7.80;2.20;;;19.80;98.00;;;;;;8286303;28;20509;-80
2022/07/27 18:44:43;;;;;;;5.47;2.60;;;19.60;98.70;;;;;;8294537;28;20482;-79
2022/07/27 18:48:44;;;;;;;4.70;2.83;;;19.50;98.80;;;;;;8280356;28;20031;-80
2022/07/27 18:52:45;;;;;;;5.82;2.30;;;19.30;99.40;;;;;;8289689;28;20034;-79
2022/07/27 18:56:46;;;;;;;7.32;3.03;;;19.00;99.70;;;;;;8290021;28;20410;-79
2022/07/27 19:00:46;;;;;;;6.88;2.65;;;18.90;99.90;;;;;;8288812;28;20118;-88
2022/07/27 19:04:47;;;;;;;3.42;2.40;;;18.60;99.90;;;;;;8294026;28;20409;-88
2022/07/27 19:08:48;;;;;;;10.23;2.95;;;18.40;99.90;;;;;;8295064;28;20486;-89
2022/07/27 19:12:48;;;;;;;3.60;2.45;;;18.40;99.90;;;;;;8293016;28;20072;-88
2022/07/27 19:16:50;;;;;;;2.67;2.10;;;18.10;99.90;;;;;;8295387;28;20049;-89
2022/07/27 19:20:51;;;;;;;4.47;2.38;;;17.90;99.90;;;;;;8294633;28;20030;-88
2022/07/27 19:24:52;;;;;;;2.88;2.50;;;17.80;99.90;;;;;;8291408;28;20030;-89
2022/07/27 19:28:53;;;;;;;5.22;2.65;;;17.80;99.90;;;;;;8293229;28;20029;-80
2022/07/27 19:32:53;;;;;;;7.95;2.42;;;17.70;99.90;;;;;;8288071;28;20502;-80
2022/07/27 19:36:54;;;;;;;9.55;2.83;;;17.50;99.90;;;;;;8292912;28;20029;-79
2022/07/27 19:40:54;;;;;;;3.85;2.60;;;17.50;99.90;;;;;;8294801;28;20037;-80
2022/07/27 19:44:55;;;;;;;7.45;2.47;;;17.50;99.90;;;;;;8288440;28;20069;-80
2022/07/27 19:48:55;;;;;;;3.17;2.20;;;17.40;99.90;;;;;;8291401;28;20495;-79
2022/07/27 19:52:56;;;;;;;5.97;2.70;;;17.20;99.90;;;;;;8292599;28;20028;-80
2022/07/27 19:56:56;;;;;;;5.05;2.50;;;17.40;99.90;;;;;;8287224;28;20032;-79
2022/07/27 20:00:57;;;;;;;4.85;2.50;;;17.60;99.90;;;;;;8291244;28;20129;-80
2022/07/27 20:04:58;;;;;;;2.70;2.30;;;17.80;99.90;;;;;;8290674;28;20065;-81
2022/07/27 20:08:58;;;;;;;5.88;2.25;;;17.90;99.90;;;;;;8292705;28;20026;-81
2022/07/27 20:13:00;;;;;;;2.55;2.08;;;18.10;99.90;;;;;;8292011;28;20401;-80
2022/07/27 20:17:01;;;;;;;3.78;2.40;;;18.10;99.90;;;;;;8293499;28;20412;-80
2022/07/27 20:21:01;;;;;;;8.80;2.40;;;18.10;99.90;;;;;;8292159;28;20084;-80
2022/07/27 20:25:02;;;;;;;4.18;2.13;;;18.20;99.90;;;;;;8292887;28;20034;-80
2022/07/27 20:29:03;;;;;;;3.38;2.20;;;18.30;99.90;;;;;;8291875;28;20140;-80
2022/07/27 20:33:03;;;;;;;4.95;2.50;;;18.30;99.90;;;;;;8288788;28;20033;-81
2022/07/27 20:37:04;;;;;;;4.43;2.15;;;18.30;99.90;;;;;;8286116;28;20049;-80
2022/07/27 20:41:04;;;;;;;5.72;2.10;;;18.00;99.90;;;;;;8290862;28;20034;-80
2022/07/27 20:45:08;;;;;;;4.82;2.22;;;17.90;99.90;;;;;;8289933;28;20070;-79
2022/07/27 20:49:09;;;;;;;4.53;2.33;;;17.90;99.90;;;;;;8288220;28;20038;-80
2022/07/27 20:53:09;;;;;;;4.30;2.22;;;17.70;99.90;;;;;;8289345;28;20527;-80
2022/07/27 20:57:10;;;;;;;9.68;2.45;;;17.60;99.90;;;;;;8291910;28;20056;-79
2022/07/27 21:01:10;;;;;;;7.57;2.30;;;17.50;99.90;;;;;;8286788;28;20038;-79